createdAt,value
2018-08-22T00:01:25.588Z,26.60
2018-08-22T00:04:07.663Z,26.60
2018-08-22T00:06:49.094Z,26.60
2018-08-22T00:09:30.896Z,26.60
2018-08-22T00:12:11.872Z,26.60
2018-08-22T00:14:52.710Z,26.50
2018-08-22T00:17:34.172Z,26.50
2018-08-22T00:20:15.795Z,26.60
2018-08-22T00:22:57.528Z,26.50
2018-08-22T00:25:39.096Z,26.50
2018-08-22T00:28:20.317Z,26.50
2018-08-22T00:31:01.897Z,26.50
2018-08-22T00:33:43.668Z,26.50
2018-08-22T00:36:24.423Z,26.50
2018-08-22T00:39:06.342Z,26.50
2018-08-22T00:41:48.046Z,26.50
2018-08-22T00:44:29.747Z,26.50
2018-08-22T00:47:10.508Z,26.50
2018-08-22T00:49:52.241Z,26.50
2018-08-22T00:52:33.282Z,26.60
2018-08-22T00:55:14.878Z,26.50
2018-08-22T00:57:56.501Z,26.50
2018-08-22T01:00:37.907Z,26.50
2018-08-22T01:03:19.538Z,26.60
2018-08-22T01:06:00.586Z,26.50
2018-08-22T01:08:41.865Z,26.50
2018-08-22T01:11:22.612Z,26.50
2018-08-22T01:14:04.031Z,26.50
2018-08-22T01:16:46.458Z,26.50
2018-08-22T01:19:27.342Z,26.60
2018-08-22T01:22:08.845Z,26.50
2018-08-22T01:24:50.869Z,26.60
2018-08-22T01:27:32.366Z,26.60
2018-08-22T01:30:14.038Z,26.60
2018-08-22T01:32:56.318Z,26.50
2018-08-22T01:35:37.529Z,26.50
2018-08-22T01:38:18.249Z,26.40
2018-08-22T01:40:59.799Z,26.40
2018-08-22T01:43:40.801Z,26.30
2018-08-22T01:46:21.527Z,26.30
2018-08-22T01:49:03.461Z,26.30
2018-08-22T01:51:44.978Z,26.20
2018-08-22T01:54:26.287Z,26.20
2018-08-22T01:57:07.750Z,26.10
2018-08-22T01:59:49.636Z,26.10
2018-08-22T02:02:31.154Z,26.00
2018-08-22T02:05:13.034Z,26.00
2018-08-22T02:07:54.681Z,25.90
2018-08-22T02:10:36.495Z,25.90
2018-08-22T02:13:17.294Z,25.90
2018-08-22T02:15:58.981Z,25.80
2018-08-22T02:18:40.091Z,25.70
2018-08-22T02:21:21.799Z,25.60
2018-08-22T02:24:03.506Z,25.60
2018-08-22T02:26:45.052Z,25.50
2018-08-22T02:29:26.573Z,25.50
2018-08-22T02:32:07.667Z,25.50
2018-08-22T02:34:49.385Z,25.40
2018-08-22T02:37:30.457Z,25.40
2018-08-22T02:40:11.357Z,25.40
2018-08-22T02:42:52.697Z,25.30
2018-08-22T02:45:33.466Z,25.30
2018-08-22T02:48:14.420Z,25.30
2018-08-22T02:50:57.050Z,25.30
2018-08-22T02:53:38.944Z,25.20
2018-08-22T02:56:20.753Z,25.20
2018-08-22T02:59:02.341Z,25.10
2018-08-22T03:01:43.987Z,25.10
2018-08-22T03:04:24.850Z,25.10
2018-08-22T03:07:06.439Z,25.10
2018-08-22T03:09:48.140Z,25.00
2018-08-22T03:12:29.241Z,24.90
2018-08-22T03:15:10.862Z,24.90
2018-08-22T03:17:52.119Z,24.90
2018-08-22T03:20:33.105Z,24.90
2018-08-22T03:23:14.782Z,24.90
2018-08-22T03:25:56.570Z,24.90
2018-08-22T03:28:37.642Z,24.90
2018-08-22T03:31:19.346Z,24.90
2018-08-22T03:34:00.595Z,24.80
2018-08-22T03:36:42.245Z,24.80
2018-08-22T03:39:22.997Z,24.90
2018-08-22T03:42:04.000Z,24.80
2018-08-22T03:44:45.535Z,24.80
2018-08-22T03:47:26.373Z,24.80
2018-08-22T03:50:08.411Z,24.70
2018-08-22T03:52:49.959Z,24.70
2018-08-22T03:55:31.736Z,24.70
2018-08-22T03:58:13.179Z,24.60
2018-08-22T04:00:54.067Z,24.50
2018-08-22T04:03:35.912Z,24.60
2018-08-22T04:06:17.560Z,24.50
2018-08-22T04:09:00.404Z,24.50
2018-08-22T04:11:41.872Z,24.50
2018-08-22T04:14:24.162Z,24.60
2018-08-22T04:17:05.224Z,24.60
2018-08-22T04:19:46.749Z,24.60
2018-08-22T04:22:27.740Z,24.60
2018-08-22T04:25:09.677Z,24.60
2018-08-22T04:27:51.022Z,24.60
2018-08-22T04:30:31.904Z,24.60
2018-08-22T04:33:13.637Z,24.60
2018-08-22T04:35:54.534Z,24.50
2018-08-22T04:38:36.783Z,24.50
2018-08-22T04:41:18.130Z,24.60
2018-08-22T04:44:00.148Z,24.50
2018-08-22T04:46:41.909Z,24.50
2018-08-22T04:49:23.548Z,24.50
2018-08-22T04:52:04.845Z,24.50
2018-08-22T04:54:46.637Z,24.50
2018-08-22T04:57:28.266Z,24.50
2018-08-22T05:00:10.102Z,24.50
2018-08-22T05:02:51.976Z,24.50
2018-08-22T05:05:33.719Z,24.50
2018-08-22T05:08:14.830Z,24.50
2018-08-22T05:10:56.118Z,24.50
2018-08-22T05:13:37.857Z,24.50
2018-08-22T05:16:18.942Z,24.50
2018-08-22T05:19:00.829Z,24.50
2018-08-22T05:21:42.645Z,24.40
2018-08-22T05:24:24.390Z,24.50
2018-08-22T05:27:06.068Z,24.50
2018-08-22T05:29:47.096Z,24.50
2018-08-22T05:32:29.373Z,24.50
2018-08-22T05:35:10.605Z,24.50
2018-08-22T05:37:51.767Z,24.50
2018-08-22T05:40:33.239Z,24.50
2018-08-22T05:43:14.848Z,24.60
2018-08-22T05:45:55.672Z,24.60
2018-08-22T05:48:36.393Z,24.60
2018-08-22T05:51:17.316Z,24.60
2018-08-22T05:53:59.108Z,24.70
2018-08-22T05:56:40.839Z,24.70
2018-08-22T05:59:21.740Z,24.70
2018-08-22T06:02:03.489Z,24.90
2018-08-22T06:04:44.862Z,25.00
2018-08-22T06:07:25.717Z,25.10
2018-08-22T06:10:06.744Z,25.10
2018-08-22T06:12:48.329Z,25.20
2018-08-22T06:15:30.109Z,25.30
2018-08-22T06:18:11.380Z,25.40
2018-08-22T06:20:53.018Z,25.50
2018-08-22T06:23:34.360Z,25.60
2018-08-22T06:26:16.170Z,25.70
2018-08-22T06:28:57.737Z,25.70
2018-08-22T06:31:38.590Z,25.80
2018-08-22T06:34:19.464Z,25.70
2018-08-22T06:37:01.318Z,25.70
2018-08-22T06:39:42.465Z,25.80
2018-08-22T06:42:24.022Z,25.80
2018-08-22T06:45:05.912Z,25.90
2018-08-22T06:47:48.092Z,25.90
2018-08-22T06:50:29.191Z,26.00
2018-08-22T06:53:10.187Z,26.10
2018-08-22T06:55:51.577Z,26.20
2018-08-22T06:58:33.302Z,26.30
2018-08-22T07:01:14.299Z,26.40
2018-08-22T07:03:55.126Z,26.50
2018-08-22T07:06:36.694Z,26.60
2018-08-22T07:09:17.776Z,26.70
2018-08-22T07:11:59.071Z,26.80
2018-08-22T07:14:41.152Z,26.80
2018-08-22T07:17:22.129Z,26.90
2018-08-22T07:20:03.223Z,26.90
2018-08-22T07:22:44.267Z,26.90
2018-08-22T07:25:25.394Z,26.90
2018-08-22T07:28:06.616Z,26.90
2018-08-22T07:30:47.720Z,26.90
2018-08-22T07:33:28.726Z,26.90
2018-08-22T07:36:09.744Z,26.90
2018-08-22T07:38:51.038Z,26.90
2018-08-22T07:44:18.028Z,27.20
2018-08-22T07:46:59.735Z,27.20
2018-08-22T07:49:40.527Z,27.30
2018-08-22T07:52:21.401Z,27.40
2018-08-22T07:55:03.328Z,27.50
2018-08-22T07:57:44.577Z,27.50
2018-08-22T08:00:42.548Z,27.60
2018-08-22T08:03:27.104Z,27.60
2018-08-22T08:06:08.743Z,27.60
2018-08-22T08:08:50.712Z,27.80
2018-08-22T08:11:32.003Z,27.70
2018-08-22T08:14:14.582Z,27.80
2018-08-22T08:16:55.902Z,27.90
2018-08-22T08:19:37.786Z,27.90
2018-08-22T08:22:19.036Z,28.00
2018-08-22T08:25:00.021Z,28.20
2018-08-22T08:27:41.629Z,28.20
2018-08-22T08:30:23.111Z,28.30
2018-08-22T08:33:05.017Z,28.20
2018-08-22T08:35:48.123Z,28.30
2018-08-22T08:38:29.701Z,28.40
2018-08-22T08:41:11.079Z,28.50
2018-08-22T08:43:52.442Z,28.70
2018-08-22T08:46:33.920Z,29.00
2018-08-22T08:49:14.855Z,29.30
2018-08-22T08:51:55.777Z,29.60
2018-08-22T08:54:37.632Z,29.70
2018-08-22T08:57:19.110Z,29.90
2018-08-22T09:00:02.115Z,30.00
2018-08-22T09:02:43.428Z,30.20
2018-08-22T09:05:25.271Z,30.50
2018-08-22T09:08:07.913Z,30.60
2018-08-22T09:10:49.986Z,30.70
2018-08-22T09:13:31.183Z,30.80
2018-08-22T09:16:12.989Z,30.80
2018-08-22T09:18:54.650Z,30.90
2018-08-22T09:21:35.554Z,31.00
2018-08-22T09:24:16.979Z,30.90
2018-08-22T09:26:57.734Z,30.50
2018-08-22T09:29:38.970Z,30.60
2018-08-22T09:32:20.957Z,30.60
2018-08-22T09:35:02.780Z,30.90
2018-08-22T09:37:43.744Z,30.90
2018-08-22T09:40:24.502Z,30.90
2018-08-22T09:43:06.470Z,31.10
2018-08-22T09:45:47.482Z,31.10
2018-08-22T09:48:28.666Z,31.10
2018-08-22T09:51:09.476Z,31.20
2018-08-22T09:53:50.904Z,31.00
2018-08-22T09:56:31.664Z,31.10
2018-08-22T09:59:13.256Z,31.10
2018-08-22T10:01:54.760Z,31.20
2018-08-22T10:04:35.617Z,31.10
2018-08-22T10:07:17.381Z,30.80
2018-08-22T10:09:59.282Z,30.80
2018-08-22T10:12:40.889Z,30.70
2018-08-22T10:15:22.725Z,30.60
2018-08-22T10:18:03.802Z,30.80
2018-08-22T10:20:45.293Z,30.70
2018-08-22T10:23:26.255Z,30.90
2018-08-22T10:26:07.375Z,31.10
2018-08-22T10:28:49.081Z,31.10
2018-08-22T10:31:30.836Z,31.30
2018-08-22T10:34:12.522Z,31.40
2018-08-22T10:36:54.105Z,31.50
2018-08-22T10:39:35.931Z,31.60
2018-08-22T10:42:18.615Z,31.60
2018-08-22T10:44:59.389Z,31.70
2018-08-22T10:47:41.089Z,31.70
2018-08-22T10:50:21.930Z,31.70
2018-08-22T10:53:02.889Z,31.70
2018-08-22T10:55:44.892Z,31.50
2018-08-22T10:58:26.232Z,31.50
2018-08-22T11:01:07.180Z,31.40
2018-08-22T11:03:48.107Z,31.40
2018-08-22T11:06:29.484Z,31.20
2018-08-22T11:09:11.530Z,31.20
2018-08-22T11:11:52.294Z,31.10
2018-08-22T11:14:33.502Z,31.10
2018-08-22T11:17:14.934Z,31.10
2018-08-22T11:19:55.789Z,31.10
2018-08-22T11:22:37.516Z,31.10
2018-08-22T11:25:19.233Z,31.10
2018-08-22T11:28:01.313Z,31.20
2018-08-22T11:30:42.540Z,31.00
2018-08-22T11:33:23.344Z,30.90
2018-08-22T11:36:05.089Z,30.80
2018-08-22T11:38:46.798Z,30.60
2018-08-22T11:41:28.955Z,30.50
2018-08-22T11:44:10.427Z,30.50
2018-08-22T11:46:51.307Z,30.60
2018-08-22T11:49:33.412Z,30.90
2018-08-22T11:52:15.370Z,31.00
2018-08-22T11:54:56.967Z,30.50
2018-08-22T11:57:37.794Z,30.70
2018-08-22T12:00:19.560Z,30.80
2018-08-22T12:03:01.372Z,30.70
2018-08-22T12:05:43.280Z,30.50
2018-08-22T12:08:25.206Z,30.50
2018-08-22T12:11:06.866Z,30.50
2018-08-22T12:13:48.174Z,30.50
2018-08-22T12:16:30.475Z,30.60
2018-08-22T12:19:11.682Z,30.40
2018-08-22T12:21:53.021Z,30.50
2018-08-22T12:24:34.248Z,30.60
2018-08-22T12:27:15.471Z,30.60
2018-08-22T12:29:56.663Z,30.80
2018-08-22T12:32:38.525Z,30.90
2018-08-22T12:35:19.355Z,30.80
2018-08-22T12:38:00.950Z,31.00
2018-08-22T12:40:41.876Z,31.10
2018-08-22T12:43:23.618Z,31.10
2018-08-22T12:46:04.432Z,31.20
2018-08-22T12:48:46.213Z,31.10
2018-08-22T12:51:28.313Z,30.80
2018-08-22T12:54:10.050Z,30.70
2018-08-22T12:56:52.117Z,30.50
2018-08-22T12:59:33.349Z,30.50
2018-08-22T13:02:14.320Z,30.60
2018-08-22T13:04:55.491Z,30.70
2018-08-22T13:07:36.615Z,30.70
2018-08-22T13:10:17.900Z,30.60
2018-08-22T13:12:59.177Z,30.60
2018-08-22T13:15:40.250Z,30.50
2018-08-22T13:18:21.890Z,30.50
2018-08-22T13:21:02.931Z,30.50
2018-08-22T13:23:44.321Z,30.50
2018-08-22T13:26:26.137Z,30.60
2018-08-22T13:29:07.158Z,30.60
2018-08-22T13:31:48.912Z,30.60
2018-08-22T13:34:30.710Z,30.80
2018-08-22T13:37:12.392Z,31.00
2018-08-22T13:39:53.217Z,31.10
2018-08-22T13:42:33.999Z,31.10
2018-08-22T13:45:15.474Z,31.20
2018-08-22T13:47:56.598Z,31.30
2018-08-22T13:50:37.463Z,31.20
2018-08-22T13:53:19.152Z,31.40
2018-08-22T13:56:00.813Z,31.30
2018-08-22T13:58:42.963Z,31.20
2018-08-22T14:01:24.284Z,31.20
2018-08-22T14:04:05.700Z,31.10
2018-08-22T14:06:48.258Z,31.10
2018-08-22T14:09:31.116Z,30.90
2018-08-22T14:12:11.938Z,31.00
2018-08-22T14:14:53.069Z,30.80
2018-08-22T14:17:34.799Z,30.90
2018-08-22T14:20:15.598Z,30.90
2018-08-22T14:22:57.110Z,30.70
2018-08-22T14:25:39.634Z,30.80
2018-08-22T14:28:20.473Z,30.80
2018-08-22T14:31:01.279Z,31.00
2018-08-22T14:33:43.044Z,30.90
2018-08-22T14:36:24.759Z,31.00
2018-08-22T14:39:07.097Z,30.80
2018-08-22T14:41:49.285Z,30.90
2018-08-22T14:44:30.117Z,30.90
2018-08-22T14:47:11.769Z,31.00
2018-08-22T14:49:53.366Z,30.70
2018-08-22T14:52:34.363Z,31.00
2018-08-22T14:55:15.952Z,31.20
2018-08-22T14:57:57.594Z,31.30
2018-08-22T15:00:39.443Z,31.40
2018-08-22T15:03:20.495Z,31.40
2018-08-22T15:06:01.949Z,31.10
2018-08-22T15:08:43.675Z,31.10
2018-08-22T15:11:25.410Z,31.10
2018-08-22T15:14:07.374Z,31.00
2018-08-22T15:16:48.928Z,30.90
2018-08-22T15:19:30.594Z,30.90
2018-08-22T15:22:11.618Z,30.70
2018-08-22T15:24:53.216Z,30.60
2018-08-22T15:27:35.000Z,30.70
2018-08-22T15:30:16.976Z,30.70
2018-08-22T15:32:58.988Z,30.40
2018-08-22T15:35:40.484Z,30.30
2018-08-22T15:38:22.186Z,30.30
2018-08-22T15:41:03.122Z,30.30
2018-08-22T15:43:45.010Z,30.30
2018-08-22T15:46:27.221Z,30.30
2018-08-22T15:49:08.557Z,30.40
2018-08-22T15:51:49.360Z,30.30
2018-08-22T15:54:30.954Z,30.40
2018-08-22T15:57:12.785Z,30.40
2018-08-22T15:59:53.670Z,30.40
2018-08-22T16:02:34.647Z,30.00
2018-08-22T16:05:16.341Z,30.00
2018-08-22T16:07:57.978Z,29.80
2018-08-22T16:10:39.563Z,29.70
2018-08-22T16:13:26.374Z,29.60
2018-08-22T16:16:08.040Z,29.60
2018-08-22T16:18:49.877Z,29.50
2018-08-22T16:21:31.594Z,29.50
2018-08-22T16:24:12.343Z,29.30
2018-08-22T16:26:53.415Z,29.20
2018-08-22T16:29:34.834Z,29.00
2018-08-22T16:32:16.742Z,28.80
2018-08-22T16:34:58.412Z,28.80
2018-08-22T16:37:40.610Z,28.80
2018-08-22T16:40:21.899Z,28.70
2018-08-22T16:43:03.654Z,28.60
2018-08-22T16:45:50.451Z,28.50
2018-08-22T16:48:32.097Z,28.40
2018-08-22T16:51:13.758Z,28.40
2018-08-22T16:53:59.681Z,28.30
2018-08-22T16:56:41.549Z,28.20
2018-08-22T16:59:23.396Z,28.10
2018-08-22T17:02:05.218Z,27.90
2018-08-22T17:04:46.032Z,27.80
2018-08-22T17:07:27.820Z,27.70
2018-08-22T17:10:09.607Z,27.70
2018-08-22T17:12:51.392Z,27.70
2018-08-22T17:15:33.076Z,27.80
2018-08-22T17:18:13.955Z,27.80
2018-08-22T17:20:55.812Z,27.70
2018-08-22T17:23:37.128Z,27.70
2018-08-22T17:26:20.001Z,27.60
2018-08-22T17:29:01.922Z,27.60
2018-08-22T17:31:43.563Z,27.60
2018-08-22T17:34:25.462Z,27.60
2018-08-22T17:37:06.842Z,27.60
2018-08-22T17:39:47.714Z,27.60
2018-08-22T17:42:29.651Z,27.60
2018-08-22T17:45:11.444Z,27.50
2018-08-22T17:47:53.213Z,27.50
2018-08-22T17:50:35.116Z,27.50
2018-08-22T17:53:15.977Z,27.40
2018-08-22T17:55:56.963Z,27.30
2018-08-22T17:58:38.909Z,27.30
2018-08-22T18:01:21.040Z,27.40
2018-08-22T18:04:02.975Z,27.40
2018-08-22T18:06:44.093Z,27.40
2018-08-22T18:09:25.943Z,27.30
2018-08-22T18:12:07.727Z,27.30
2018-08-22T18:14:49.417Z,27.30
2018-08-22T18:17:30.341Z,27.30
2018-08-22T18:20:11.988Z,27.30
2018-08-22T18:22:53.770Z,27.20
2018-08-22T18:25:35.423Z,27.20
2018-08-22T18:28:17.408Z,27.20
2018-08-22T18:30:59.069Z,27.20
2018-08-22T18:33:40.910Z,27.20
2018-08-22T18:36:22.744Z,27.20
2018-08-22T18:39:05.673Z,27.20
2018-08-22T18:41:46.867Z,27.10
2018-08-22T18:44:29.309Z,27.20
2018-08-22T18:47:10.499Z,27.10
2018-08-22T18:49:52.275Z,27.20
2018-08-22T18:52:34.028Z,27.10
2018-08-22T18:55:16.380Z,27.10
2018-08-22T18:57:59.153Z,27.10
2018-08-22T19:00:40.852Z,27.00
2018-08-22T19:03:21.877Z,27.00
2018-08-22T19:06:03.774Z,27.00
2018-08-22T19:08:45.338Z,27.00
2018-08-22T19:11:26.595Z,27.00
2018-08-22T19:14:08.761Z,27.10
2018-08-22T19:16:49.807Z,27.10
2018-08-22T19:19:31.922Z,27.10
2018-08-22T19:22:14.807Z,27.10
2018-08-22T19:25:02.979Z,27.10
2018-08-22T19:27:44.527Z,27.10
2018-08-22T19:30:25.747Z,27.10
2018-08-22T19:33:06.705Z,27.10
2018-08-22T19:35:47.950Z,27.20
2018-08-22T19:38:29.279Z,27.20
2018-08-22T19:41:15.108Z,27.20
2018-08-22T19:43:56.666Z,27.20
2018-08-22T19:46:38.453Z,27.30
2018-08-22T19:49:20.250Z,27.20
2018-08-22T19:52:01.967Z,27.20
2018-08-22T19:54:43.691Z,27.20
2018-08-22T19:57:33.677Z,27.20
2018-08-22T20:00:15.913Z,27.20
2018-08-22T20:02:58.295Z,27.10
2018-08-22T20:05:44.176Z,27.10
2018-08-22T20:08:29.772Z,27.10
2018-08-22T20:11:13.768Z,27.10
2018-08-22T20:13:56.804Z,27.10
2018-08-22T20:16:39.959Z,27.10
2018-08-22T20:19:21.188Z,27.00
2018-08-22T20:22:03.247Z,27.00
2018-08-22T20:24:46.027Z,27.00
2018-08-22T20:27:28.790Z,26.90
2018-08-22T20:30:16.611Z,26.90
2018-08-22T20:33:03.512Z,26.90
2018-08-22T20:35:44.864Z,26.90
2018-08-22T20:38:26.603Z,26.90
2018-08-22T20:41:09.895Z,26.90
2018-08-22T20:43:52.093Z,26.90
2018-08-22T20:46:37.358Z,26.80
2018-08-22T20:49:34.036Z,26.80
2018-08-22T20:52:15.350Z,26.70
2018-08-22T20:55:01.431Z,26.70
2018-08-22T20:57:45.374Z,26.60
2018-08-22T21:00:33.830Z,26.60
2018-08-22T21:03:17.180Z,26.60
2018-08-22T21:05:59.116Z,26.50
2018-08-22T21:08:40.531Z,26.50
2018-08-22T21:11:23.090Z,26.50
2018-08-22T21:14:04.986Z,26.50
2018-08-22T21:16:45.975Z,26.40
2018-08-22T21:19:28.050Z,26.40
2018-08-22T21:22:10.302Z,26.40
2018-08-22T21:24:58.707Z,26.40
2018-08-22T21:27:40.298Z,26.30
2018-08-22T21:30:22.636Z,26.30
2018-08-22T21:33:04.580Z,26.30
2018-08-22T21:35:46.438Z,26.30
2018-08-22T21:38:28.033Z,26.20
2018-08-22T21:41:09.803Z,26.20
2018-08-22T21:43:51.448Z,26.20
2018-08-22T21:46:32.846Z,26.20
2018-08-22T21:49:16.330Z,26.10
2018-08-22T21:51:57.869Z,26.10
2018-08-22T21:54:39.632Z,26.10
2018-08-22T21:57:21.536Z,26.00
2018-08-22T22:00:09.502Z,25.90
2018-08-22T22:02:51.038Z,25.90
2018-08-22T22:05:32.775Z,25.90
2018-08-22T22:08:14.568Z,25.90
2018-08-22T22:10:55.981Z,25.90
2018-08-22T22:13:36.672Z,25.80
2018-08-22T22:16:18.545Z,25.80
2018-08-22T22:19:00.978Z,25.80
2018-08-22T22:21:42.809Z,25.80
2018-08-22T22:24:24.603Z,25.70
2018-08-22T22:27:05.871Z,25.70
2018-08-22T22:29:48.294Z,25.80
2018-08-22T22:32:30.058Z,25.70
2018-08-22T22:35:11.732Z,25.70
2018-08-22T22:37:55.471Z,25.70
2018-08-22T22:40:41.970Z,25.70
2018-08-22T22:43:23.248Z,25.70
2018-08-22T22:46:05.186Z,25.70
2018-08-22T22:48:46.598Z,25.70
2018-08-22T22:51:29.214Z,25.70
2018-08-22T22:54:10.147Z,25.70
2018-08-22T22:56:52.044Z,25.70
2018-08-22T22:59:33.083Z,25.60
2018-08-22T23:02:14.747Z,25.60
2018-08-22T23:04:57.536Z,25.60
2018-08-22T23:07:40.261Z,25.60
2018-08-22T23:10:21.717Z,25.60
2018-08-22T23:13:03.470Z,25.60
2018-08-22T23:15:44.408Z,25.60
2018-08-22T23:18:27.128Z,25.50
2018-08-22T23:21:08.846Z,25.50
2018-08-22T23:23:50.645Z,25.50
2018-08-22T23:26:31.678Z,25.50
2018-08-22T23:29:12.892Z,25.50
2018-08-22T23:31:53.912Z,25.40
2018-08-22T23:34:35.959Z,25.40
2018-08-22T23:37:17.638Z,25.40
2018-08-22T23:39:58.854Z,25.40
2018-08-22T23:42:41.760Z,25.40
2018-08-22T23:45:23.451Z,25.40
2018-08-22T23:48:04.289Z,25.40
2018-08-22T23:50:46.644Z,25.40
2018-08-22T23:53:28.707Z,25.40
2018-08-22T23:56:11.426Z,25.30
2018-08-22T23:58:52.739Z,25.30
